Time;durP1;ratioP1;P1;durP2;ratioP2;P2;SDS_P1;SDS_P2;PMS_P1;PMS_P2;Temp;Humidity;BMP_temperature;BMP_pressure;BME280_temperature;BME280_humidity;BME280_pressure;Samples;Min_cycle;Max_cycle;Signal;HPM_P1;HPM_P2
2023/03/26 00:01:57;;;;;;;13.40;4.32;;;;;;;8.10;96.81;98673.06;4976095;28;20067;-96
2023/03/26 00:04:26;;;;;;;19.50;4.60;;;;;;;8.10;96.08;98667.78;4960179;29;20047;-95
2023/03/26 00:07:02;;;;;;;12.00;5.18;;;;;;;8.19;95.29;98686.13;4977733;29;20051;-96
2023/03/26 00:09:28;;;;;;;19.35;5.22;;;;;;;7.93;96.32;98668.94;4959961;29;20067;-95
2023/03/26 00:12:05;;;;;;;19.65;4.55;;;;;;;7.88;97.41;98668.16;4978058;29;20080;-96
2023/03/26 00:14:43;;;;;;;18.52;5.18;;;;;;;7.91;96.37;98676.03;4963491;29;20047;-96
2023/03/26 00:17:15;;;;;;;23.50;6.47;;;;;;;7.96;96.96;98684.78;4960910;28;20504;-96
2023/03/26 00:19:46;;;;;;;14.73;5.57;;;;;;;7.86;96.56;98682.34;4975942;29;20121;-96
2023/03/26 00:22:13;;;;;;;18.02;5.25;;;;;;;8.02;98.16;98724.41;4960222;29;20035;-96
2023/03/26 00:24:46;;;;;;;16.42;6.15;;;;;;;7.80;97.45;98685.94;4961594;29;20054;-96
2023/03/26 00:27:35;;;;;;;13.93;6.00;;;;;;;7.69;97.65;98672.03;4961723;29;20047;-96
2023/03/26 00:30:12;;;;;;;19.88;5.95;;;;;;;7.90;97.20;98708.72;4979060;29;20062;-96
2023/03/26 00:32:41;;;;;;;23.85;7.10;;;;;;;7.76;97.74;98687.78;4955720;29;20055;-95
2023/03/26 00:35:12;;;;;;;23.17;6.37;;;;;;;7.71;97.83;98676.41;4953532;29;20051;-96
2023/03/26 00:37:42;;;;;;;20.88;6.85;;;;;;;7.57;100.00;98675.78;4950391;29;20074;-96
2023/03/26 00:40:13;;;;;;;27.17;6.45;;;;;;;7.78;100.00;98716.88;4951269;29;20052;-96
2023/03/26 00:42:43;;;;;;;21.25;6.03;;;;;;;7.53;100.00;98677.59;4954759;29;20032;-96
2023/03/26 00:45:13;;;;;;;24.75;5.82;;;;;;;7.51;100.00;98675.88;4953086;29;20071;-96
2023/03/26 00:47:42;;;;;;;24.95;5.38;;;;;;;7.54;100.00;98673.16;4951711;29;20503;-96
2023/03/26 00:50:15;;;;;;;37.53;5.90;;;;;;;7.51;100.00;98668.78;4950258;29;20103;-95
2023/03/26 00:52:46;;;;;;;26.45;6.05;;;;;;;7.47;100.00;98667.09;4951194;29;20040;-95
2023/03/26 00:55:16;;;;;;;27.02;5.90;;;;;;;7.51;100.00;98663.50;4951735;28;20062;-95
2023/03/26 00:57:47;;;;;;;24.15;5.60;;;;;;;7.70;100.00;98709.06;4953845;29;20035;-95
2023/03/26 01:00:19;;;;;;;24.42;5.78;;;;;;;7.41;100.00;98670.69;4953360;29;20072;-96
2023/03/26 01:02:54;;;;;;;26.80;5.45;;;;;;;7.50;100.00;98688.19;4952627;29;20044;-96
2023/03/26 01:05:42;;;;;;;23.08;6.50;;;;;;;7.69;100.00;98711.72;4952152;29;20051;-96
2023/03/26 01:08:23;;;;;;;24.35;5.85;;;;;;;7.47;100.00;98672.38;4952231;29;20501;-96
2023/03/26 01:11:06;;;;;;;22.02;5.60;;;;;;;7.41;100.00;98656.59;4953572;28;20099;-96
2023/03/26 01:13:35;;;;;;;21.00;5.93;;;;;;;7.38;100.00;98659.31;4951485;29;20044;-95
2023/03/26 01:16:18;;;;;;;21.40;6.47;;;;;;;7.40;100.00;98681.31;4951092;29;20051;-96
2023/03/26 01:19:02;;;;;;;18.08;5.93;;;;;;;7.20;100.00;98671.06;4953672;29;20095;-96
2023/03/26 01:21:37;;;;;;;28.35;6.57;;;;;;;7.20;100.00;98663.13;4954995;29;20075;-95
2023/03/26 01:24:17;;;;;;;20.85;5.63;;;;;;;7.17;100.00;98668.44;4952719;29;20099;-95
2023/03/26 01:27:09;;;;;;;16.02;6.28;;;;;;;7.01;100.00;98669.59;4950733;29;20048;-96
2023/03/26 01:29:43;;;;;;;28.42;7.97;;;;;;;7.00;100.00;98666.03;4951727;29;20052;-96
2023/03/26 01:32:23;;;;;;;28.30;6.82;;;;;;;6.95;100.00;98662.59;4951123;29;20044;-95
2023/03/26 01:35:08;;;;;;;30.75;6.75;;;;;;;6.97;100.00;98660.81;4951021;29;20048;-96
2023/03/26 01:37:58;;;;;;;21.17;6.43;;;;;;;6.99;100.00;98664.31;4950514;29;20098;-95
2023/03/26 01:40:51;;;;;;;16.60;5.45;;;;;;;7.05;100.00;98669.50;4951074;29;20055;-95
2023/03/26 01:43:28;;;;;;;24.77;6.47;;;;;;;6.91;100.00;98651.19;4950405;29;20496;-96
2023/03/26 01:46:01;;;;;;;23.80;6.55;;;;;;;6.90;100.00;98644.16;4951795;29;20102;-96
2023/03/26 01:48:35;;;;;;;26.20;6.40;;;;;;;7.08;100.00;98685.31;4951343;29;20047;-95
2023/03/26 01:51:05;;;;;;;25.48;6.32;;;;;;;6.81;100.00;98649.59;4951578;29;20048;-95
2023/03/26 01:53:39;;;;;;;34.95;7.32;;;;;;;6.80;100.00;98637.25;4951037;29;20051;-96
2023/03/26 01:56:20;;;;;;;23.58;6.72;;;;;;;7.02;100.00;98679.25;4953552;29;20051;-96
2023/03/26 01:59:02;;;;;;;22.70;6.40;;;;;;;6.62;100.00;98632.22;4952156;29;20052;-95
2023/03/26 02:01:35;;;;;;;22.98;7.10;;;;;;;6.63;100.00;98629.56;4950426;29;20067;-96
2023/03/26 02:04:12;;;;;;;25.30;7.03;;;;;;;6.79;100.00;98678.66;4949797;29;20039;-95
2023/03/26 02:06:48;;;;;;;25.58;6.90;;;;;;;6.53;100.00;98626.16;4950474;29;20078;-96
2023/03/26 02:09:26;;;;;;;26.15;7.63;;;;;;;6.44;100.00;98622.75;4952216;29;20058;-96
2023/03/26 02:12:02;;;;;;;26.85;7.68;;;;;;;6.40;100.00;98623.69;4950096;29;20055;-95
2023/03/26 02:14:33;;;;;;;25.80;7.30;;;;;;;6.32;100.00;98607.97;4952253;29;20064;-95
2023/03/26 02:17:01;;;;;;;26.85;7.30;;;;;;;6.34;100.00;98603.53;4951211;29;20119;-95
2023/03/26 02:19:28;;;;;;;27.55;7.63;;;;;;;6.33;100.00;98607.03;4951667;29;20055;-96
2023/03/26 02:21:58;;;;;;;19.50;6.88;;;;;;;6.27;100.00;98602.72;4950941;29;20107;-96
2023/03/26 02:24:28;;;;;;;22.50;7.22;;;;;;;6.28;100.00;98607.09;4950203;29;20394;-95
2023/03/26 02:26:56;;;;;;;27.80;7.30;;;;;;;6.49;100.00;98653.53;4949691;29;20047;-96
2023/03/26 02:29:25;;;;;;;22.40;6.55;;;;;;;6.23;100.00;98616.88;4950546;29;20082;-95
2023/03/26 02:31:54;;;;;;;23.08;6.43;;;;;;;6.45;100.00;98650.94;4960194;28;20083;-94
2023/03/26 02:34:22;;;;;;;23.17;6.32;;;;;;;6.20;100.00;98602.81;4935833;29;20489;-95
2023/03/26 02:36:52;;;;;;;19.80;7.07;;;;;;;6.15;100.00;98616.94;4933808;29;20111;-95
2023/03/26 02:39:25;;;;;;;21.70;5.85;;;;;;;6.24;100.00;98631.81;4934371;29;20142;-95
2023/03/26 02:41:52;;;;;;;22.25;6.38;;;;;;;6.12;100.00;98605.56;4933862;29;20058;-96
2023/03/26 02:44:23;;;;;;;20.40;5.97;;;;;;;6.31;100.00;98644.06;4934040;29;20410;-94
2023/03/26 02:46:51;;;;;;;23.73;5.88;;;;;;;6.34;100.00;98651.94;4932640;29;20048;-95
2023/03/26 02:49:22;;;;;;;22.35;5.63;;;;;;;6.11;100.00;98601.16;4932495;29;20079;-95
2023/03/26 02:51:48;;;;;;;20.17;6.07;;;;;;;6.09;100.00;98610.88;4931881;29;20047;-96
2023/03/26 02:54:17;;;;;;;18.38;5.80;;;;;;;6.15;100.00;98616.94;4931505;29;20054;-96
2023/03/26 02:56:44;;;;;;;21.65;6.53;;;;;;;6.09;100.00;98601.16;4932558;29;20048;-96
2023/03/26 02:59:13;;;;;;;21.88;6.20;;;;;;;6.05;100.00;98619.72;4949842;29;20055;-96
2023/03/26 03:01:42;;;;;;;22.25;5.90;;;;;;;6.16;100.00;98631.91;4934049;29;20047;-95
2023/03/26 03:04:13;;;;;;;20.30;6.07;;;;;;;6.07;100.00;98617.91;4932986;29;20044;-96
2023/03/26 03:06:43;;;;;;;25.77;6.18;;;;;;;5.84;100.00;98589.13;4947792;29;20075;-96
2023/03/26 03:09:13;;;;;;;14.38;5.60;;;;;;;5.94;100.00;98602.25;4947220;29;20043;-95
2023/03/26 03:11:40;;;;;;;24.15;6.20;;;;;;;5.83;100.00;98590.88;4931206;29;20067;-96
2023/03/26 03:14:10;;;;;;;19.05;6.15;;;;;;;5.85;100.00;98597.00;4931019;29;20044;-95
2023/03/26 03:16:37;;;;;;;21.88;6.15;;;;;;;5.84;100.00;98590.00;4933366;29;20047;-95
2023/03/26 03:19:06;;;;;;;18.52;5.65;;;;;;;5.86;100.00;98571.53;4934629;29;20136;-95
2023/03/26 03:21:41;;;;;;;14.32;5.72;;;;;;;6.13;100.00;98624.00;4931974;29;20059;-95
2023/03/26 03:24:12;;;;;;;20.60;6.35;;;;;;;5.88;100.00;98581.16;4930697;29;20071;-96
2023/03/26 03:26:44;;;;;;;16.45;5.10;;;;;;;5.92;100.00;98571.44;4931187;29;20106;-96
2023/03/26 03:29:11;;;;;;;15.68;5.47;;;;;;;6.10;100.00;98597.66;4949911;29;20059;-96
2023/03/26 03:31:40;;;;;;;16.15;4.85;;;;;;;5.84;100.00;98558.34;4935808;29;20066;-96
2023/03/26 03:34:11;;;;;;;14.48;4.72;;;;;;;5.88;100.00;98567.09;4934934;29;20047;-95
2023/03/26 03:36:37;;;;;;;15.27;4.90;;;;;;;5.89;100.00;98566.19;4934518;29;20532;-95
2023/03/26 03:39:10;;;;;;;9.53;4.50;;;;;;;5.94;100.00;98570.56;4935361;28;20080;-96
2023/03/26 03:41:39;;;;;;;13.65;4.97;;;;;;;5.89;100.00;98553.88;4936835;29;20314;-96
2023/03/26 03:44:05;;;;;;;13.88;4.43;;;;;;;5.93;100.00;98554.72;4935969;29;20043;-96
2023/03/26 03:46:37;;;;;;;17.70;5.93;;;;;;;5.91;100.00;98557.38;4936934;29;20054;-96
2023/03/26 03:49:04;;;;;;;13.77;4.45;;;;;;;6.00;100.00;98581.94;4934912;29;20102;-95
2023/03/26 03:51:34;;;;;;;14.93;4.72;;;;;;;5.93;100.00;98570.56;4935222;29;20116;-95
2023/03/26 03:54:02;;;;;;;16.38;4.53;;;;;;;5.96;100.00;98574.06;4935520;29;20048;-96
2023/03/26 03:56:28;;;;;;;12.73;4.72;;;;;;;5.92;100.00;98574.97;4935896;29;20052;-96
2023/03/26 03:58:58;;;;;;;14.70;4.47;;;;;;;5.95;100.00;98577.59;4937264;29;20056;-95
2023/03/26 04:01:25;;;;;;;13.15;4.45;;;;;;;5.90;100.00;98565.31;4938591;29;20138;-96
2023/03/26 04:03:56;;;;;;;9.77;4.15;;;;;;;6.07;100.00;98604.72;4938908;29;20047;-95
2023/03/26 04:06:24;;;;;;;12.13;4.35;;;;;;;5.92;100.00;98576.69;4936126;29;20119;-95
2023/03/26 04:08:55;;;;;;;15.25;4.75;;;;;;;6.14;100.00;98617.84;4934143;29;20075;-96
2023/03/26 04:11:23;;;;;;;15.23;4.35;;;;;;;5.88;100.00;98575.03;4934863;29;20044;-95
2023/03/26 04:13:50;;;;;;;11.50;4.33;;;;;;;5.95;100.00;98566.16;4935233;29;20047;-95
2023/03/26 04:16:17;;;;;;;11.93;4.72;;;;;;;5.98;100.00;98579.31;4934978;29;20055;-95
2023/03/26 04:18:45;;;;;;;11.60;4.95;;;;;;;6.06;100.00;98584.50;4934027;29;20043;-96
2023/03/26 04:21:14;;;;;;;13.45;4.53;;;;;;;6.00;100.00;98577.53;4935638;29;20486;-95
2023/03/26 04:23:46;;;;;;;11.57;4.57;;;;;;;6.01;100.00;98567.84;4935514;29;20055;-96
2023/03/26 04:26:22;;;;;;;11.93;4.72;;;;;;;5.99;100.00;98567.88;4935742;29;20144;-95
2023/03/26 04:28:54;;;;;;;12.65;4.50;;;;;;;6.02;100.00;98577.53;4934886;29;20051;-96
2023/03/26 04:31:27;;;;;;;17.13;4.72;;;;;;;6.02;100.00;98569.59;4933489;29;20079;-96
2023/03/26 04:34:00;;;;;;;9.90;4.50;;;;;;;6.07;100.00;98576.59;4949638;29;20055;-96
2023/03/26 04:36:33;;;;;;;8.95;4.35;;;;;;;6.30;100.00;98612.38;4950951;29;20051;-95
2023/03/26 04:39:03;;;;;;;17.20;4.78;;;;;;;6.11;100.00;98577.41;4935703;29;20043;-96
2023/03/26 04:41:36;;;;;;;10.95;4.10;;;;;;;6.05;100.00;98577.47;4934694;29;20072;-96
2023/03/26 04:44:02;;;;;;;15.18;4.47;;;;;;;6.03;100.00;98576.63;4935185;29;20048;-96
2023/03/26 04:46:35;;;;;;;10.00;3.95;;;;;;;6.02;100.00;98572.25;4935024;29;20048;-96
2023/03/26 04:49:03;;;;;;;10.88;4.88;;;;;;;6.27;100.00;98637.06;4950927;29;20050;-96
2023/03/26 04:51:37;;;;;;;10.88;4.22;;;;;;;6.31;100.00;98625.56;4935051;29;20079;-96
2023/03/26 04:54:07;;;;;;;14.32;4.22;;;;;;;6.11;100.00;98588.81;4935566;29;20044;-95
2023/03/26 04:56:42;;;;;;;13.13;4.60;;;;;;;6.30;100.00;98605.31;4951535;29;20058;-95
2023/03/26 04:59:16;;;;;;;12.50;4.53;;;;;;;6.09;100.00;98585.34;4935818;29;20052;-95
2023/03/26 05:01:45;;;;;;;10.18;4.25;;;;;;;6.00;100.00;98577.53;4935493;29;20501;-96
2023/03/26 05:04:16;;;;;;;9.68;4.35;;;;;;;6.02;100.00;98564.31;4935022;29;20028;-94
2023/03/26 05:06:45;;;;;;;10.43;4.47;;;;;;;6.11;100.00;98587.97;4935344;28;20044;-95
2023/03/26 05:09:13;;;;;;;10.48;4.15;;;;;;;6.25;100.00;98609.81;4934774;29;20047;-96
2023/03/26 05:11:41;;;;;;;11.65;4.68;;;;;;;6.38;100.00;98624.59;4950992;29;20128;-96
2023/03/26 05:14:10;;;;;;;9.25;4.47;;;;;;;6.13;100.00;98572.97;4934364;29;20050;-95
2023/03/26 05:16:40;;;;;;;8.63;4.32;;;;;;;6.27;100.00;98600.09;4933917;29;20122;-95
2023/03/26 05:19:07;;;;;;;15.82;5.53;;;;;;;6.36;100.00;98609.66;4945119;29;20071;-95
2023/03/26 05:21:33;;;;;;;11.63;4.32;;;;;;;6.11;100.00;98567.72;4929811;29;20052;-95
2023/03/26 05:24:02;;;;;;;11.68;4.72;;;;;;;6.20;100.00;98590.47;4930605;29;20073;-96
2023/03/26 05:26:28;;;;;;;10.13;4.20;;;;;;;6.28;100.00;98612.38;4946769;29;20047;-95
2023/03/26 05:28:59;;;;;;;9.52;4.22;;;;;;;6.12;100.00;98572.13;4931579;29;20047;-96
2023/03/26 05:31:29;;;;;;;9.52;4.65;;;;;;;6.20;100.00;98576.41;4932492;29;20059;-96
2023/03/26 05:33:59;;;;;;;11.77;4.15;;;;;;;6.30;100.00;98591.25;4933396;29;20048;-95
2023/03/26 05:36:27;;;;;;;11.20;4.15;;;;;;;6.34;100.00;98587.69;4931784;29;20055;-96
2023/03/26 05:38:53;;;;;;;11.93;5.27;;;;;;;6.37;100.00;98591.13;4933397;29;20054;-95
2023/03/26 05:41:21;;;;;;;12.88;5.28;;;;;;;6.41;100.00;98584.06;4934603;29;20027;-95
2023/03/26 05:43:48;;;;;;;11.55;4.53;;;;;;;6.53;100.00;98585.69;4930919;29;20051;-96
2023/03/26 05:46:21;;;;;;;11.43;4.57;;;;;;;6.68;100.00;98603.97;4930765;29;20178;-95
2023/03/26 05:48:50;;;;;;;11.90;4.57;;;;;;;6.87;100.00;98609.81;4931973;29;20047;-94
2023/03/26 05:51:19;;;;;;;14.57;6.22;;;;;;;6.90;100.00;98585.16;4930136;29;20103;-96
2023/03/26 05:53:47;;;;;;;23.95;9.30;;;;;;;7.14;100.00;98605.91;4930322;29;20040;-95
2023/03/26 05:56:16;;;;;;;24.55;10.98;;;;;;;7.31;100.00;98629.44;4929565;29;20043;-95
2023/03/26 05:58:47;;;;;;;22.25;10.95;;;;;;;7.10;100.00;98577.75;4930330;29;20052;-96
2023/03/26 06:01:18;;;;;;;29.95;11.25;;;;;;;7.33;100.00;98606.47;4931577;29;20048;-95
2023/03/26 06:03:50;;;;;;;27.95;11.13;;;;;;;7.30;100.00;98576.56;4930921;29;20047;-96
2023/03/26 06:06:20;;;;;;;24.00;10.93;;;;;;;7.34;100.00;98578.25;4932379;29;20103;-96
2023/03/26 06:08:53;;;;;;;24.45;11.32;;;;;;;7.51;100.00;98599.13;4946843;29;20079;-95
2023/03/26 06:11:19;;;;;;;19.20;9.63;;;;;;;7.56;100.00;98590.19;4929652;29;20052;-95
2023/03/26 06:13:51;;;;;;;22.50;9.75;;;;;;;7.67;100.00;98575.91;4931185;29;20048;-96
2023/03/26 06:16:17;;;;;;;17.00;8.20;;;;;;;7.85;100.00;98575.56;4929883;29;20099;-94
2023/03/26 06:18:43;;;;;;;16.90;8.68;;;;;;;7.92;100.00;98571.91;4930474;29;20118;-95
2023/03/26 06:21:17;;;;;;;21.40;8.27;;;;;;;8.19;100.00;98609.31;4930621;29;20042;-96
2023/03/26 06:23:43;;;;;;;16.67;8.25;;;;;;;8.15;100.00;98575.84;4929402;29;20507;-95
2023/03/26 06:26:13;;;;;;;16.75;8.30;;;;;;;8.29;100.00;98575.56;4929411;29;20086;-96
2023/03/26 06:28:40;;;;;;;17.17;7.63;;;;;;;8.42;100.00;98587.69;4944529;29;20062;-94
2023/03/26 06:31:07;;;;;;;17.92;8.15;;;;;;;8.48;100.00;98573.41;4928656;29;20059;-95
2023/03/26 06:33:33;;;;;;;19.65;8.13;;;;;;;8.71;99.17;98575.56;4928582;29;20051;-94
2023/03/26 06:36:00;;;;;;;16.70;8.40;;;;;;;8.89;97.92;98566.31;4928315;29;20047;-95
2023/03/26 06:38:31;;;;;;;16.05;5.70;;;;;;;9.06;96.56;98572.09;4928298;29;20047;-95
2023/03/26 06:41:01;;;;;;;13.65;5.90;;;;;;;9.36;95.52;98577.56;4928879;29;20051;-96
2023/03/26 06:43:32;;;;;;;12.75;5.82;;;;;;;9.63;94.34;98599.88;4930535;29;20198;-96
2023/03/26 06:45:58;;;;;;;11.40;5.60;;;;;;;9.53;93.73;98555.91;4930668;29;20047;-95
2023/03/26 06:48:25;;;;;;;11.90;5.78;;;;;;;9.59;92.81;98561.03;4928537;29;20119;-95
2023/03/26 06:50:51;;;;;;;13.50;5.93;;;;;;;9.60;92.76;98546.84;4928159;29;20142;-95
2023/03/26 06:53:17;;;;;;;13.18;5.40;;;;;;;9.63;92.33;98562.72;4928602;29;20079;-94
2023/03/26 06:55:45;;;;;;;15.27;5.82;;;;;;;9.61;92.96;98551.25;4929599;29;20058;-95
2023/03/26 06:58:15;;;;;;;12.60;5.57;;;;;;;9.67;92.73;98551.06;4930809;29;20083;-96
2023/03/26 07:00:44;;;;;;;12.38;5.97;;;;;;;9.82;91.51;98548.03;4931215;29;20056;-96
2023/03/26 07:03:10;;;;;;;14.63;6.13;;;;;;;9.92;90.62;98545.09;4928415;29;20494;-95
2023/03/26 07:05:40;;;;;;;13.18;6.47;;;;;;;9.97;90.04;98537.88;4928980;29;20409;-95
2023/03/26 07:08:06;;;;;;;12.93;5.07;;;;;;;10.23;89.58;98553.91;4933369;29;20067;-96
2023/03/26 07:10:33;;;;;;;12.43;5.70;;;;;;;10.07;88.89;98523.41;4950129;29;20114;-96
2023/03/26 07:13:01;;;;;;;15.40;5.47;;;;;;;10.01;89.99;98521.78;4932427;29;20058;-96
2023/03/26 07:15:30;;;;;;;11.82;5.45;;;;;;;10.09;89.83;98532.22;4929260;29;20051;-95
2023/03/26 07:17:58;;;;;;;12.40;5.32;;;;;;;10.25;89.43;98540.59;4929812;29;20051;-96
2023/03/26 07:20:27;;;;;;;16.08;7.00;;;;;;;10.21;88.73;98531.88;4931283;29;20111;-96
2023/03/26 07:22:53;;;;;;;10.50;5.80;;;;;;;10.22;87.50;98530.06;4932046;29;20146;-95
2023/03/26 07:25:20;;;;;;;12.00;5.68;;;;;;;10.27;85.88;98544.09;4931061;29;20052;-96
2023/03/26 07:27:55;;;;;;;12.10;5.57;;;;;;;10.24;87.58;98546.84;4932128;29;20043;-96
2023/03/26 07:30:31;;;;;;;12.70;5.40;;;;;;;10.30;87.07;98554.69;4932826;29;20146;-95
2023/03/26 07:33:05;;;;;;;14.43;6.05;;;;;;;10.38;87.80;98573.91;4947599;29;20581;-96
2023/03/26 07:35:37;;;;;;;13.38;6.03;;;;;;;10.07;88.79;98536.69;4931528;29;20074;-96
2023/03/26 07:38:21;;;;;;;12.77;5.70;;;;;;;10.11;89.35;98532.19;4928853;29;20047;-95
2023/03/26 07:41:00;;;;;;;11.18;5.82;;;;;;;10.26;87.32;98537.91;4929754;29;20047;-95
2023/03/26 07:43:46;;;;;;;11.32;5.72;;;;;;;10.46;87.01;98537.34;4932422;29;20047;-96
2023/03/26 07:46:26;;;;;;;10.17;5.27;;;;;;;10.69;86.08;98557.91;4948615;29;20067;-96
2023/03/26 07:48:56;;;;;;;12.77;5.80;;;;;;;10.63;86.29;98531.50;4933535;28;20495;-96
2023/03/26 07:51:26;;;;;;;15.63;5.68;;;;;;;10.76;84.73;98528.47;4936720;29;20043;-96
2023/03/26 07:53:58;;;;;;;9.30;5.38;;;;;;;10.87;83.70;98523.66;4935495;29;20044;-96
2023/03/26 07:56:34;;;;;;;10.95;5.28;;;;;;;10.94;83.85;98535.84;4933748;29;20051;-96
2023/03/26 07:59:20;;;;;;;7.55;4.63;;;;;;;11.09;82.99;98526.50;4934518;29;20063;-96
2023/03/26 08:02:01;;;;;;;12.02;5.00;;;;;;;11.09;81.25;98515.84;4932993;29;20540;-96
2023/03/26 08:04:53;;;;;;;11.80;5.45;;;;;;;11.10;82.19;98513.16;4935430;29;20604;-96
2023/03/26 08:07:38;;;;;;;10.73;5.03;;;;;;;11.24;81.31;98509.16;4952774;29;20047;-95
2023/03/26 08:10:10;;;;;;;10.63;5.13;;;;;;;11.39;79.50;98499.78;4934914;29;20079;-96
2023/03/26 08:33:35;;;;;;;11.23;5.82;;;;;;;12.88;74.51;98492.41;4953019;28;20056;-96
2023/03/26 08:36:01;;;;;;;11.68;6.07;;;;;;;12.91;73.82;98459.38;4941631;29;20122;-96
2023/03/26 08:38:37;;;;;;;13.50;6.13;;;;;;;13.09;71.61;98461.25;4940977;29;20117;-96
2023/03/26 08:41:35;;;;;;;14.90;6.50;;;;;;;12.70;71.89;98459.31;4942137;29;20115;-96
2023/03/26 08:44:46;;;;;;;13.45;6.60;;;;;;;12.45;73.60;98459.44;4958861;29;20052;-96
2023/03/26 08:47:57;;;;;;;14.53;6.43;;;;;;;12.39;73.84;98454.34;4936766;29;20082;-96
2023/03/26 08:50:49;;;;;;;12.95;6.35;;;;;;;12.56;74.42;98445.66;4933005;29;20103;-96
2023/03/26 08:53:57;;;;;;;13.30;6.68;;;;;;;13.12;73.17;98485.16;4939976;29;20075;-96
2023/03/26 08:57:02;;;;;;;12.02;6.25;;;;;;;13.21;71.89;98443.84;4931369;29;20051;-95
2023/03/26 09:00:04;;;;;;;11.77;6.07;;;;;;;13.24;70.22;98427.69;4954451;29;20067;-96
2023/03/26 09:02:59;;;;;;;13.48;6.15;;;;;;;13.62;69.01;98434.97;4954046;29;20139;-96
2023/03/26 09:06:25;;;;;;;15.85;6.07;;;;;;;13.70;68.52;98430.16;4955236;29;20051;-96
2023/03/26 09:09:42;;;;;;;13.27;6.43;;;;;;;13.97;67.52;98430.72;4937286;29;20044;-96
2023/03/26 09:12:40;;;;;;;10.45;6.10;;;;;;;14.03;66.16;98435.78;4937228;29;20047;-96
2023/03/26 09:15:59;;;;;;;11.52;6.60;;;;;;;14.02;65.93;98422.47;4938652;29;20063;-96
2023/03/26 09:19:00;;;;;;;12.20;6.47;;;;;;;14.46;65.08;98448.91;4882754;29;20045;-96
2023/03/26 09:22:14;;;;;;;13.07;6.80;;;;;;;14.17;64.23;98409.25;4883621;29;20060;-96
2023/03/26 09:25:09;;;;;;;12.63;5.97;;;;;;;13.94;64.44;98401.44;4869936;29;20112;-96
2023/03/26 09:28:08;;;;;;;11.52;6.32;;;;;;;13.91;65.70;98393.56;4880730;29;20049;-96
2023/03/26 09:31:14;;;;;;;13.35;6.90;;;;;;;14.05;64.95;98383.13;4897275;29;20085;-96
2023/03/26 09:34:08;;;;;;;13.85;6.32;;;;;;;13.88;66.89;98391.03;4826851;29;20050;-95
2023/03/26 09:37:22;;;;;;;11.38;6.20;;;;;;;14.23;65.61;98415.28;4842495;29;20069;-96
2023/03/26 09:40:04;;;;;;;13.35;5.78;;;;;;;13.41;66.05;98375.38;4842475;29;20058;-96
2023/03/26 09:42:42;;;;;;;11.88;6.85;;;;;;;13.84;66.30;98414.38;4842802;29;20057;-96
2023/03/26 09:45:40;;;;;;;15.05;7.57;;;;;;;13.93;66.25;98387.22;4827283;29;20075;-96
2023/03/26 09:48:30;;;;;;;19.30;9.70;;;;;;;14.55;64.50;98406.59;4826903;29;20108;-95
2023/03/26 09:51:32;;;;;;;20.65;9.68;;;;;;;14.42;64.33;98373.31;4843139;29;20046;-95
2023/03/26 09:54:33;;;;;;;17.02;9.48;;;;;;;14.37;63.96;98360.13;4851581;29;20045;-96
2023/03/26 09:57:09;;;;;;;19.70;9.18;;;;;;;14.65;63.74;98369.50;4863457;29;20150;-96
2023/03/26 10:00:04;;;;;;;22.75;12.38;;;;;;;14.76;63.59;98356.44;4877979;29;20049;-96
2023/03/26 10:03:09;;;;;;;27.75;11.35;;;;;;;14.91;62.90;98364.66;4862330;29;20054;-96
2023/03/26 10:05:56;;;;;;;18.27;10.25;;;;;;;14.95;62.75;98399.22;4863708;29;20141;-96
2023/03/26 10:09:03;;;;;;;18.15;9.23;;;;;;;15.08;63.90;98395.94;4871876;29;20033;-96
2023/03/26 10:11:57;;;;;;;20.33;9.45;;;;;;;14.51;64.52;98355.94;4939812;29;20048;-96
2023/03/26 10:14:34;;;;;;;16.73;8.93;;;;;;;14.67;63.77;98366.78;4955878;28;20062;-95
2023/03/26 10:17:39;;;;;;;12.75;6.47;;;;;;;14.82;62.84;98347.25;4955937;29;20047;-96
2023/03/26 10:20:31;;;;;;;20.55;9.38;;;;;;;15.12;64.02;98347.47;4938837;29;20044;-95
2023/03/26 10:23:25;;;;;;;11.90;7.15;;;;;;;15.25;60.20;98336.13;4938484;29;20048;-96
2023/03/26 10:26:29;;;;;;;13.65;6.80;;;;;;;15.28;60.49;98334.13;4938330;29;20068;-96
2023/03/26 10:29:18;;;;;;;19.42;8.55;;;;;;;15.65;60.97;98356.28;4954346;29;20051;-96
2023/03/26 10:31:50;;;;;;;;;;;;;;;15.80;60.37;98362.66;4954544;29;20035;-96
2023/03/26 10:34:45;;;;;;;16.48;7.82;;;;;;;15.60;59.94;98310.09;4938420;29;19974;-96
2023/03/26 10:37:25;;;;;;;18.67;9.63;;;;;;;15.55;61.05;98315.72;4939663;29;20126;-96
2023/03/26 10:40:18;;;;;;;22.08;15.05;;;;;;;16.12;59.76;98344.78;4936363;29;20047;-95
2023/03/26 10:43:18;;;;;;;19.58;10.60;;;;;;;15.45;61.11;98319.00;4934455;29;20580;-96
2023/03/26 10:46:01;;;;;;;15.15;8.82;;;;;;;15.51;60.45;98311.47;4931588;29;20482;-96
2023/03/26 10:48:50;;;;;;;16.83;9.20;;;;;;;15.76;61.34;98328.91;4935761;29;20493;-93
2023/03/26 10:51:35;;;;;;;20.50;9.38;;;;;;;15.90;60.60;98309.41;4935375;29;20048;-95
2023/03/26 10:54:10;;;;;;;15.50;8.98;;;;;;;15.61;61.35;98309.16;4935726;29;20056;-96
2023/03/26 10:56:43;;;;;;;15.25;8.73;;;;;;;15.15;61.99;98285.72;4936283;29;20427;-95
2023/03/26 10:59:13;;;;;;;20.15;9.32;;;;;;;15.40;63.43;98287.09;4934984;29;20051;-94
2023/03/26 11:01:48;;;;;;;19.10;8.55;;;;;;;15.78;63.68;98282.31;4932999;29;20051;-95
2023/03/26 11:04:27;;;;;;;14.48;7.55;;;;;;;16.21;60.64;98290.59;4933291;29;20048;-96
2023/03/26 11:07:05;;;;;;;16.63;8.82;;;;;;;16.00;60.95;98290.03;4948392;29;20051;-96
2023/03/26 11:09:41;;;;;;;16.42;9.10;;;;;;;16.38;61.42;98305.72;4932074;29;20045;-95
2023/03/26 11:12:20;;;;;;;16.80;9.68;;;;;;;16.37;61.45;98278.97;4930335;29;20052;-96
2023/03/26 11:15:03;;;;;;;14.95;7.10;;;;;;;16.73;57.52;98292.03;4930652;29;20558;-96
2023/03/26 11:17:42;;;;;;;13.80;6.97;;;;;;;16.45;57.64;98297.31;4930426;29;20051;-96
2023/03/26 11:20:19;;;;;;;10.07;5.57;;;;;;;16.64;55.49;98322.13;4929774;29;20115;-96
2023/03/26 11:23:04;;;;;;;10.55;5.75;;;;;;;16.33;55.45;98314.97;4931922;29;20047;-96
2023/03/26 11:25:48;;;;;;;13.88;6.22;;;;;;;16.11;56.43;98281.38;4931062;29;20044;-96
2023/03/26 11:28:34;;;;;;;9.93;5.50;;;;;;;16.01;58.07;98277.47;4930734;29;20116;-96
2023/03/26 11:31:12;;;;;;;10.25;5.78;;;;;;;15.85;58.04;98260.50;4931159;29;20063;-96
2023/03/26 11:33:43;;;;;;;16.75;7.43;;;;;;;15.73;60.31;98249.53;4931743;29;20048;-96
2023/03/26 11:36:13;;;;;;;11.55;6.50;;;;;;;15.72;61.21;98239.78;4930783;29;20063;-96
2023/03/26 11:38:43;;;;;;;12.93;7.07;;;;;;;15.77;60.86;98226.97;4931409;29;20043;-96
2023/03/26 11:41:16;;;;;;;13.07;7.05;;;;;;;15.96;59.32;98224.09;4933182;29;20043;-95
2023/03/26 11:43:49;;;;;;;10.05;5.07;;;;;;;15.97;56.47;98241.06;4932111;29;20554;-96
2023/03/26 11:46:20;;;;;;;8.95;6.07;;;;;;;16.25;56.80;98232.28;4932105;29;20055;-96
2023/03/26 11:48:49;;;;;;;13.32;5.63;;;;;;;16.26;56.28;98262.63;4932215;29;20054;-96
2023/03/26 11:51:26;;;;;;;9.55;5.40;;;;;;;16.30;56.24;98230.16;4932225;29;20577;-95
2023/03/26 11:53:53;;;;;;;11.40;6.22;;;;;;;16.26;56.04;98214.34;4938092;29;20048;-96
2023/03/26 11:56:27;;;;;;;11.35;5.05;;;;;;;16.20;56.25;98199.50;4952098;29;20489;-96
2023/03/26 11:59:04;;;;;;;12.77;5.57;;;;;;;16.42;56.56;98196.38;4934779;29;20494;-96
2023/03/26 12:01:49;;;;;;;9.05;5.05;;;;;;;16.64;54.96;98198.63;4933204;29;20043;-96
2023/03/26 12:04:19;;;;;;;10.60;5.28;;;;;;;16.87;53.54;98194.53;4934574;29;20048;-96
2023/03/26 12:06:56;;;;;;;9.43;4.70;;;;;;;17.07;52.75;98187.97;4935474;29;20048;-96
2023/03/26 12:09:25;;;;;;;10.60;5.35;;;;;;;17.10;52.90;98185.06;4937043;29;20031;-96
2023/03/26 12:12:03;;;;;;;10.10;4.30;;;;;;;17.17;50.67;98172.09;4935994;29;20486;-94
2023/03/26 12:14:34;;;;;;;8.25;4.07;;;;;;;17.06;50.18;98174.63;4934560;29;20146;-95
2023/03/26 12:17:07;;;;;;;10.48;4.93;;;;;;;17.35;51.64;98188.88;4932695;29;20099;-96
2023/03/26 12:19:38;;;;;;;10.30;4.28;;;;;;;17.27;50.17;98175.94;4932842;29;20048;-95
2023/03/26 12:22:25;;;;;;;7.47;4.45;;;;;;;17.42;48.90;98161.50;4935266;29;20055;-96
2023/03/26 12:25:13;;;;;;;12.23;4.80;;;;;;;17.52;50.00;98156.41;4937041;29;20095;-95
2023/03/26 12:27:57;;;;;;;8.65;4.43;;;;;;;18.00;49.90;98183.75;4935858;29;20047;-96
2023/03/26 12:30:29;;;;;;;8.75;4.45;;;;;;;17.98;50.05;98160.63;4935692;29;20076;-95